sensor_id;sensor_type;location;lat;lon;timestamp;P1;durP1;ratioP1;P2;durP2;ratioP2
66702;SDS011;60933;46.398;-63.798;2024-03-02T00:00:48;0.32;;;0.15;;
66702;SDS011;60933;46.398;-63.798;2024-03-02T00:03:18;1.08;;;0.60;;
66702;SDS011;60933;46.398;-63.798;2024-03-02T00:05:50;0.95;;;0.65;;
66702;SDS011;60933;46.398;-63.798;2024-03-02T00:08:22;1.75;;;0.43;;
66702;SDS011;60933;46.398;-63.798;2024-03-02T00:10:58;0.85;;;0.43;;
66702;SDS011;60933;46.398;-63.798;2024-03-02T00:13:27;0.32;;;0.22;;
66702;SDS011;60933;46.398;-63.798;2024-03-02T00:15:57;0.88;;;0.50;;
66702;SDS011;60933;46.398;-63.798;2024-03-02T00:18:27;0.85;;;0.52;;
66702;SDS011;60933;46.398;-63.798;2024-03-02T00:20:59;3.10;;;0.60;;
66702;SDS011;60933;46.398;-63.798;2024-03-02T00:23:29;1.58;;;0.60;;
66702;SDS011;60933;46.398;-63.798;2024-03-02T00:25:58;1.45;;;0.43;;
66702;SDS011;60933;46.398;-63.798;2024-03-02T00:31:12;1.35;;;0.40;;
66702;SDS011;60933;46.398;-63.798;2024-03-02T00:33:48;0.45;;;0.32;;
66702;SDS011;60933;46.398;-63.798;2024-03-02T00:36:26;0.43;;;0.20;;
66702;SDS011;60933;46.398;-63.798;2024-03-02T00:38:54;1.60;;;0.50;;
66702;SDS011;60933;46.398;-63.798;2024-03-02T00:41:27;0.30;;;0.30;;
66702;SDS011;60933;46.398;-63.798;2024-03-02T00:44:00;1.73;;;0.60;;
66702;SDS011;60933;46.398;-63.798;2024-03-02T00:46:34;2.20;;;0.73;;
66702;SDS011;60933;46.398;-63.798;2024-03-02T00:49:04;1.25;;;0.55;;
66702;SDS011;60933;46.398;-63.798;2024-03-02T00:51:39;1.48;;;0.60;;
66702;SDS011;60933;46.398;-63.798;2024-03-02T00:54:07;0.95;;;0.40;;
66702;SDS011;60933;46.398;-63.798;2024-03-02T00:56:38;1.10;;;0.32;;
66702;SDS011;60933;46.398;-63.798;2024-03-02T00:59:06;1.55;;;0.85;;
66702;SDS011;60933;46.398;-63.798;2024-03-02T01:01:34;1.27;;;0.40;;
66702;SDS011;60933;46.398;-63.798;2024-03-02T01:04:02;0.85;;;0.63;;
66702;SDS011;60933;46.398;-63.798;2024-03-02T01:06:31;1.88;;;0.50;;
66702;SDS011;60933;46.398;-63.798;2024-03-02T01:08:59;3.55;;;0.45;;
66702;SDS011;60933;46.398;-63.798;2024-03-02T01:11:27;0.25;;;0.20;;
66702;SDS011;60933;46.398;-63.798;2024-03-02T01:13:55;1.20;;;0.32;;
66702;SDS011;60933;46.398;-63.798;2024-03-02T01:16:23;1.23;;;0.75;;
66702;SDS011;60933;46.398;-63.798;2024-03-02T01:18:51;1.35;;;0.35;;
66702;SDS011;60933;46.398;-63.798;2024-03-02T01:21:20;1.90;;;0.50;;
66702;SDS011;60933;46.398;-63.798;2024-03-02T01:23:48;1.02;;;0.40;;
66702;SDS011;60933;46.398;-63.798;2024-03-02T01:26:16;2.65;;;0.45;;
66702;SDS011;60933;46.398;-63.798;2024-03-02T01:28:44;2.25;;;1.10;;
66702;SDS011;60933;46.398;-63.798;2024-03-02T01:31:12;0.88;;;0.63;;
66702;SDS011;60933;46.398;-63.798;2024-03-02T01:33:40;0.70;;;0.30;;
66702;SDS011;60933;46.398;-63.798;2024-03-02T01:36:08;1.80;;;0.50;;
66702;SDS011;60933;46.398;-63.798;2024-03-02T01:38:36;0.60;;;0.28;;
66702;SDS011;60933;46.398;-63.798;2024-03-02T01:41:04;0.38;;;0.30;;
66702;SDS011;60933;46.398;-63.798;2024-03-02T01:43:32;0.70;;;0.30;;
66702;SDS011;60933;46.398;-63.798;2024-03-02T01:46:02;1.00;;;0.30;;
66702;SDS011;60933;46.398;-63.798;2024-03-02T01:48:31;0.60;;;0.60;;
66702;SDS011;60933;46.398;-63.798;2024-03-02T01:50:59;2.67;;;0.30;;
66702;SDS011;60933;46.398;-63.798;2024-03-02T01:53:27;1.17;;;0.50;;
66702;SDS011;60933;46.398;-63.798;2024-03-02T01:55:55;2.15;;;0.25;;
66702;SDS011;60933;46.398;-63.798;2024-03-02T01:58:24;0.95;;;0.40;;
66702;SDS011;60933;46.398;-63.798;2024-03-02T02:00:52;0.32;;;0.25;;
66702;SDS011;60933;46.398;-63.798;2024-03-02T02:03:20;0.80;;;0.30;;
66702;SDS011;60933;46.398;-63.798;2024-03-02T02:05:48;1.83;;;0.57;;
66702;SDS011;60933;46.398;-63.798;2024-03-02T02:08:16;0.65;;;0.20;;
66702;SDS011;60933;46.398;-63.798;2024-03-02T02:10:44;0.90;;;0.28;;
66702;SDS011;60933;46.398;-63.798;2024-03-02T02:13:13;2.03;;;0.70;;
66702;SDS011;60933;46.398;-63.798;2024-03-02T02:15:41;3.83;;;1.02;;
66702;SDS011;60933;46.398;-63.798;2024-03-02T02:18:09;6.05;;;0.88;;
66702;SDS011;60933;46.398;-63.798;2024-03-02T02:20:37;7.00;;;1.33;;
66702;SDS011;60933;46.398;-63.798;2024-03-02T02:23:05;5.20;;;0.98;;
66702;SDS011;60933;46.398;-63.798;2024-03-02T02:25:35;6.07;;;0.70;;
66702;SDS011;60933;46.398;-63.798;2024-03-02T02:28:03;6.93;;;1.40;;
66702;SDS011;60933;46.398;-63.798;2024-03-02T02:30:33;3.58;;;1.10;;
66702;SDS011;60933;46.398;-63.798;2024-03-02T02:33:01;6.85;;;0.95;;
66702;SDS011;60933;46.398;-63.798;2024-03-02T02:35:30;2.78;;;1.00;;
66702;SDS011;60933;46.398;-63.798;2024-03-02T02:37:58;4.50;;;1.00;;
66702;SDS011;60933;46.398;-63.798;2024-03-02T02:40:26;10.57;;;1.05;;
66702;SDS011;60933;46.398;-63.798;2024-03-02T02:42:58;7.00;;;1.45;;
66702;SDS011;60933;46.398;-63.798;2024-03-02T02:45:27;12.10;;;2.15;;
66702;SDS011;60933;46.398;-63.798;2024-03-02T02:47:55;7.50;;;1.17;;
66702;SDS011;60933;46.398;-63.798;2024-03-02T02:50:23;6.32;;;1.13;;
66702;SDS011;60933;46.398;-63.798;2024-03-02T02:52:51;9.80;;;1.63;;
66702;SDS011;60933;46.398;-63.798;2024-03-02T02:55:19;6.60;;;1.23;;
66702;SDS011;60933;46.398;-63.798;2024-03-02T02:57:47;4.72;;;0.82;;
66702;SDS011;60933;46.398;-63.798;2024-03-02T03:00:15;9.07;;;2.33;;
66702;SDS011;60933;46.398;-63.798;2024-03-02T03:02:46;7.22;;;1.20;;
66702;SDS011;60933;46.398;-63.798;2024-03-02T03:05:17;6.15;;;1.52;;
66702;SDS011;60933;46.398;-63.798;2024-03-02T03:07:46;2.70;;;0.60;;
66702;SDS011;60933;46.398;-63.798;2024-03-02T03:10:17;5.18;;;1.38;;
66702;SDS011;60933;46.398;-63.798;2024-03-02T03:12:45;7.50;;;2.10;;
66702;SDS011;60933;46.398;-63.798;2024-03-02T03:15:13;7.13;;;2.08;;
66702;SDS011;60933;46.398;-63.798;2024-03-02T03:17:43;4.88;;;1.05;;
66702;SDS011;60933;46.398;-63.798;2024-03-02T03:20:13;6.00;;;1.15;;
66702;SDS011;60933;46.398;-63.798;2024-03-02T03:22:42;4.82;;;1.55;;
66702;SDS011;60933;46.398;-63.798;2024-03-02T03:25:11;3.88;;;0.63;;
66702;SDS011;60933;46.398;-63.798;2024-03-02T03:27:39;8.63;;;1.73;;
66702;SDS011;60933;46.398;-63.798;2024-03-02T03:30:07;6.15;;;1.70;;
66702;SDS011;60933;46.398;-63.798;2024-03-02T03:32:35;9.05;;;1.80;;
66702;SDS011;60933;46.398;-63.798;2024-03-02T03:35:03;8.05;;;1.50;;
66702;SDS011;60933;46.398;-63.798;2024-03-02T03:37:32;4.10;;;1.25;;
66702;SDS011;60933;46.398;-63.798;2024-03-02T03:40:04;11.75;;;2.15;;
66702;SDS011;60933;46.398;-63.798;2024-03-02T03:42:39;3.03;;;1.33;;
66702;SDS011;60933;46.398;-63.798;2024-03-02T03:45:07;7.90;;;2.20;;
66702;SDS011;60933;46.398;-63.798;2024-03-02T03:47:35;9.05;;;1.98;;
66702;SDS011;60933;46.398;-63.798;2024-03-02T03:50:04;7.88;;;1.70;;
66702;SDS011;60933;46.398;-63.798;2024-03-02T03:52:34;11.75;;;2.53;;
66702;SDS011;60933;46.398;-63.798;2024-03-02T03:55:02;7.18;;;1.13;;
66702;SDS011;60933;46.398;-63.798;2024-03-02T03:57:32;8.05;;;1.40;;
66702;SDS011;60933;46.398;-63.798;2024-03-02T04:00:01;11.45;;;2.17;;
66702;SDS011;60933;46.398;-63.798;2024-03-02T04:02:30;16.42;;;2.28;;
66702;SDS011;60933;46.398;-63.798;2024-03-02T04:04:58;8.93;;;1.13;;
66702;SDS011;60933;46.398;-63.798;2024-03-02T04:07:26;1.20;;;0.50;;
66702;SDS011;60933;46.398;-63.798;2024-03-02T04:09:54;2.28;;;0.63;;
66702;SDS011;60933;46.398;-63.798;2024-03-02T04:12:22;5.72;;;1.38;;
66702;SDS011;60933;46.398;-63.798;2024-03-02T04:14:50;10.57;;;1.83;;
66702;SDS011;60933;46.398;-63.798;2024-03-02T04:17:18;9.68;;;1.92;;
66702;SDS011;60933;46.398;-63.798;2024-03-02T04:19:46;9.85;;;2.25;;
66702;SDS011;60933;46.398;-63.798;2024-03-02T04:22:15;6.40;;;1.60;;
66702;SDS011;60933;46.398;-63.798;2024-03-02T04:24:50;13.05;;;1.83;;
66702;SDS011;60933;46.398;-63.798;2024-03-02T04:27:19;5.95;;;1.38;;
66702;SDS011;60933;46.398;-63.798;2024-03-02T04:29:47;4.20;;;1.20;;
66702;SDS011;60933;46.398;-63.798;2024-03-02T04:32:15;4.55;;;1.05;;
66702;SDS011;60933;46.398;-63.798;2024-03-02T04:34:43;4.65;;;0.90;;
66702;SDS011;60933;46.398;-63.798;2024-03-02T04:37:11;7.07;;;2.78;;
66702;SDS011;60933;46.398;-63.798;2024-03-02T04:39:41;1.88;;;0.50;;
66702;SDS011;60933;46.398;-63.798;2024-03-02T04:42:09;2.85;;;0.85;;
66702;SDS011;60933;46.398;-63.798;2024-03-02T04:44:37;4.63;;;0.60;;
66702;SDS011;60933;46.398;-63.798;2024-03-02T04:47:05;1.20;;;0.57;;
66702;SDS011;60933;46.398;-63.798;2024-03-02T04:49:33;4.15;;;1.20;;
66702;SDS011;60933;46.398;-63.798;2024-03-02T04:52:01;0.90;;;0.55;;
66702;SDS011;60933;46.398;-63.798;2024-03-02T04:54:30;2.95;;;0.70;;
66702;SDS011;60933;46.398;-63.798;2024-03-02T04:56:58;0.77;;;0.50;;
66702;SDS011;60933;46.398;-63.798;2024-03-02T04:59:26;5.88;;;1.15;;
66702;SDS011;60933;46.398;-63.798;2024-03-02T05:01:54;2.53;;;0.85;;
66702;SDS011;60933;46.398;-63.798;2024-03-02T05:04:22;1.55;;;0.30;;
66702;SDS011;60933;46.398;-63.798;2024-03-02T05:06:50;3.72;;;0.85;;
66702;SDS011;60933;46.398;-63.798;2024-03-02T05:09:20;2.10;;;0.88;;
66702;SDS011;60933;46.398;-63.798;2024-03-02T05:11:48;3.63;;;1.00;;
66702;SDS011;60933;46.398;-63.798;2024-03-02T05:14:30;1.80;;;0.70;;
66702;SDS011;60933;46.398;-63.798;2024-03-02T05:16:58;3.42;;;0.93;;
66702;SDS011;60933;46.398;-63.798;2024-03-02T05:19:26;2.90;;;0.60;;
66702;SDS011;60933;46.398;-63.798;2024-03-02T05:21:54;2.08;;;0.85;;
66702;SDS011;60933;46.398;-63.798;2024-03-02T05:24:22;1.90;;;0.60;;
66702;SDS011;60933;46.398;-63.798;2024-03-02T05:26:50;1.15;;;0.73;;
66702;SDS011;60933;46.398;-63.798;2024-03-02T05:29:18;3.78;;;1.13;;
66702;SDS011;60933;46.398;-63.798;2024-03-02T05:31:46;1.98;;;0.77;;
66702;SDS011;60933;46.398;-63.798;2024-03-02T05:34:14;2.65;;;0.98;;
66702;SDS011;60933;46.398;-63.798;2024-03-02T05:36:42;5.32;;;1.00;;
66702;SDS011;60933;46.398;-63.798;2024-03-02T05:39:10;6.25;;;1.35;;
66702;SDS011;60933;46.398;-63.798;2024-03-02T05:41:38;1.90;;;0.45;;
66702;SDS011;60933;46.398;-63.798;2024-03-02T05:44:06;3.28;;;1.20;;
66702;SDS011;60933;46.398;-63.798;2024-03-02T05:46:34;1.42;;;0.88;;
66702;SDS011;60933;46.398;-63.798;2024-03-02T05:49:04;4.22;;;1.23;;
66702;SDS011;60933;46.398;-63.798;2024-03-02T05:51:32;1.33;;;0.57;;
66702;SDS011;60933;46.398;-63.798;2024-03-02T05:54:00;4.97;;;0.45;;
66702;SDS011;60933;46.398;-63.798;2024-03-02T05:56:28;2.78;;;0.88;;
66702;SDS011;60933;46.398;-63.798;2024-03-02T05:58:56;1.27;;;0.57;;
66702;SDS011;60933;46.398;-63.798;2024-03-02T06:01:40;2.88;;;0.60;;
66702;SDS011;60933;46.398;-63.798;2024-03-02T06:04:11;3.92;;;0.90;;
66702;SDS011;60933;46.398;-63.798;2024-03-02T06:06:40;2.50;;;1.33;;
66702;SDS011;60933;46.398;-63.798;2024-03-02T06:09:08;3.88;;;0.98;;
66702;SDS011;60933;46.398;-63.798;2024-03-02T06:11:40;1.00;;;0.50;;
66702;SDS011;60933;46.398;-63.798;2024-03-02T06:14:08;1.73;;;0.50;;
66702;SDS011;60933;46.398;-63.798;2024-03-02T06:16:37;1.63;;;0.30;;
66702;SDS011;60933;46.398;-63.798;2024-03-02T06:19:05;1.10;;;0.50;;
66702;SDS011;60933;46.398;-63.798;2024-03-02T06:21:32;3.20;;;0.85;;
66702;SDS011;60933;46.398;-63.798;2024-03-02T06:24:00;0.52;;;0.43;;
66702;SDS011;60933;46.398;-63.798;2024-03-02T06:26:28;0.73;;;0.50;;
66702;SDS011;60933;46.398;-63.798;2024-03-02T06:28:57;0.98;;;0.40;;
66702;SDS011;60933;46.398;-63.798;2024-03-02T06:31:25;0.77;;;0.30;;
66702;SDS011;60933;46.398;-63.798;2024-03-02T06:33:53;1.50;;;0.47;;
66702;SDS011;60933;46.398;-63.798;2024-03-02T06:36:21;0.70;;;0.45;;
66702;SDS011;60933;46.398;-63.798;2024-03-02T06:38:50;2.72;;;0.80;;
66702;SDS011;60933;46.398;-63.798;2024-03-02T06:41:18;1.73;;;0.50;;
66702;SDS011;60933;46.398;-63.798;2024-03-02T06:43:46;1.67;;;0.90;;
66702;SDS011;60933;46.398;-63.798;2024-03-02T06:46:14;2.13;;;0.90;;
66702;SDS011;60933;46.398;-63.798;2024-03-02T06:48:42;3.83;;;0.75;;
66702;SDS011;60933;46.398;-63.798;2024-03-02T06:51:10;3.50;;;1.02;;
66702;SDS011;60933;46.398;-63.798;2024-03-02T06:53:38;8.82;;;2.28;;
66702;SDS011;60933;46.398;-63.798;2024-03-02T06:56:06;6.07;;;1.55;;
66702;SDS011;60933;46.398;-63.798;2024-03-02T06:58:35;1.25;;;0.60;;
66702;SDS011;60933;46.398;-63.798;2024-03-02T07:01:03;0.80;;;0.70;;
66702;SDS011;60933;46.398;-63.798;2024-03-02T07:03:31;2.35;;;0.88;;
66702;SDS011;60933;46.398;-63.798;2024-03-02T07:06:00;1.23;;;0.65;;
66702;SDS011;60933;46.398;-63.798;2024-03-02T07:08:27;1.08;;;0.60;;
66702;SDS011;60933;46.398;-63.798;2024-03-02T07:10:55;1.15;;;0.40;;
66702;SDS011;60933;46.398;-63.798;2024-03-02T07:13:24;5.32;;;0.73;;
66702;SDS011;60933;46.398;-63.798;2024-03-02T07:15:52;2.17;;;0.88;;
66702;SDS011;60933;46.398;-63.798;2024-03-02T07:18:38;0.60;;;0.50;;
66702;SDS011;60933;46.398;-63.798;2024-03-02T07:21:08;1.15;;;0.40;;
66702;SDS011;60933;46.398;-63.798;2024-03-02T07:23:36;1.35;;;0.38;;
66702;SDS011;60933;46.398;-63.798;2024-03-02T07:26:04;3.42;;;0.80;;
66702;SDS011;60933;46.398;-63.798;2024-03-02T07:28:36;2.08;;;0.82;;
66702;SDS011;60933;46.398;-63.798;2024-03-02T07:31:04;1.40;;;0.55;;
66702;SDS011;60933;46.398;-63.798;2024-03-02T07:33:32;0.52;;;0.30;;
66702;SDS011;60933;46.398;-63.798;2024-03-02T07:36:01;2.92;;;0.95;;
66702;SDS011;60933;46.398;-63.798;2024-03-02T07:38:31;1.02;;;0.60;;
66702;SDS011;60933;46.398;-63.798;2024-03-02T07:41:01;0.30;;;0.30;;
66702;SDS011;60933;46.398;-63.798;2024-03-02T07:43:29;2.15;;;0.90;;
66702;SDS011;60933;46.398;-63.798;2024-03-02T07:46:00;0.80;;;0.50;;
66702;SDS011;60933;46.398;-63.798;2024-03-02T07:48:28;1.00;;;0.57;;
66702;SDS011;60933;46.398;-63.798;2024-03-02T07:50:59;1.10;;;0.55;;
66702;SDS011;60933;46.398;-63.798;2024-03-02T07:53:29;4.88;;;0.65;;
66702;SDS011;60933;46.398;-63.798;2024-03-02T07:55:57;1.80;;;0.30;;
66702;SDS011;60933;46.398;-63.798;2024-03-02T07:58:29;1.65;;;0.50;;
66702;SDS011;60933;46.398;-63.798;2024-03-02T08:00:58;1.75;;;0.73;;
66702;SDS011;60933;46.398;-63.798;2024-03-02T08:03:28;2.40;;;0.47;;
66702;SDS011;60933;46.398;-63.798;2024-03-02T08:05:56;4.07;;;0.63;;
66702;SDS011;60933;46.398;-63.798;2024-03-02T08:08:24;1.95;;;0.70;;
66702;SDS011;60933;46.398;-63.798;2024-03-02T08:10:52;0.70;;;0.52;;
66702;SDS011;60933;46.398;-63.798;2024-03-02T08:13:20;1.70;;;0.63;;
66702;SDS011;60933;46.398;-63.798;2024-03-02T08:15:48;0.93;;;0.55;;
66702;SDS011;60933;46.398;-63.798;2024-03-02T08:18:16;1.17;;;0.50;;
66702;SDS011;60933;46.398;-63.798;2024-03-02T08:20:44;0.75;;;0.43;;
66702;SDS011;60933;46.398;-63.798;2024-03-02T08:23:12;1.55;;;0.55;;
66702;SDS011;60933;46.398;-63.798;2024-03-02T08:25:40;0.80;;;0.32;;
66702;SDS011;60933;46.398;-63.798;2024-03-02T08:28:09;1.35;;;0.80;;
66702;SDS011;60933;46.398;-63.798;2024-03-02T08:30:37;0.60;;;0.30;;
66702;SDS011;60933;46.398;-63.798;2024-03-02T08:33:05;1.27;;;0.50;;
66702;SDS011;60933;46.398;-63.798;2024-03-02T08:35:33;2.08;;;0.40;;
66702;SDS011;60933;46.398;-63.798;2024-03-02T08:38:03;0.60;;;0.45;;
66702;SDS011;60933;46.398;-63.798;2024-03-02T08:40:32;0.98;;;0.47;;
66702;SDS011;60933;46.398;-63.798;2024-03-02T08:43:00;1.60;;;1.27;;
66702;SDS011;60933;46.398;-63.798;2024-03-02T08:45:28;2.92;;;0.88;;
66702;SDS011;60933;46.398;-63.798;2024-03-02T08:47:56;0.95;;;0.35;;
66702;SDS011;60933;46.398;-63.798;2024-03-02T08:50:24;1.00;;;0.63;;
66702;SDS011;60933;46.398;-63.798;2024-03-02T08:52:52;1.98;;;0.75;;
66702;SDS011;60933;46.398;-63.798;2024-03-02T08:55:20;1.58;;;0.47;;
66702;SDS011;60933;46.398;-63.798;2024-03-02T08:57:48;0.95;;;0.38;;
66702;SDS011;60933;46.398;-63.798;2024-03-02T09:00:17;2.85;;;0.80;;
66702;SDS011;60933;46.398;-63.798;2024-03-02T09:02:45;1.20;;;0.68;;
66702;SDS011;60933;46.398;-63.798;2024-03-02T09:05:14;1.25;;;0.43;;
66702;SDS011;60933;46.398;-63.798;2024-03-02T09:07:42;1.13;;;0.50;;
66702;SDS011;60933;46.398;-63.798;2024-03-02T09:10:10;0.43;;;0.43;;
66702;SDS011;60933;46.398;-63.798;2024-03-02T09:12:38;1.85;;;0.90;;
66702;SDS011;60933;46.398;-63.798;2024-03-02T09:15:06;1.95;;;1.10;;
66702;SDS011;60933;46.398;-63.798;2024-03-02T09:17:35;1.63;;;0.80;;
66702;SDS011;60933;46.398;-63.798;2024-03-02T09:20:03;4.90;;;1.30;;
66702;SDS011;60933;46.398;-63.798;2024-03-02T09:22:32;1.80;;;0.60;;
66702;SDS011;60933;46.398;-63.798;2024-03-02T09:25:00;0.93;;;0.57;;
66702;SDS011;60933;46.398;-63.798;2024-03-02T09:27:29;3.78;;;0.70;;
66702;SDS011;60933;46.398;-63.798;2024-03-02T09:29:57;6.65;;;1.67;;
66702;SDS011;60933;46.398;-63.798;2024-03-02T09:32:24;3.30;;;0.88;;
66702;SDS011;60933;46.398;-63.798;2024-03-02T09:34:53;1.58;;;0.40;;
66702;SDS011;60933;46.398;-63.798;2024-03-02T09:37:22;1.13;;;0.43;;
66702;SDS011;60933;46.398;-63.798;2024-03-02T09:39:50;2.22;;;0.73;;
66702;SDS011;60933;46.398;-63.798;2024-03-02T09:42:19;2.85;;;0.90;;
66702;SDS011;60933;46.398;-63.798;2024-03-02T09:44:50;1.35;;;0.50;;
66702;SDS011;60933;46.398;-63.798;2024-03-02T09:47:18;2.28;;;0.55;;
66702;SDS011;60933;46.398;-63.798;2024-03-02T09:49:46;1.77;;;0.95;;
66702;SDS011;60933;46.398;-63.798;2024-03-02T09:52:14;1.33;;;0.73;;
66702;SDS011;60933;46.398;-63.798;2024-03-02T09:54:43;4.03;;;0.98;;
66702;SDS011;60933;46.398;-63.798;2024-03-02T09:57:11;1.67;;;1.13;;
66702;SDS011;60933;46.398;-63.798;2024-03-02T09:59:39;1.95;;;0.93;;
66702;SDS011;60933;46.398;-63.798;2024-03-02T10:02:07;1.15;;;0.40;;
66702;SDS011;60933;46.398;-63.798;2024-03-02T10:04:35;2.40;;;0.80;;
66702;SDS011;60933;46.398;-63.798;2024-03-02T10:07:13;1.00;;;0.98;;
66702;SDS011;60933;46.398;-63.798;2024-03-02T10:09:46;1.92;;;0.40;;
66702;SDS011;60933;46.398;-63.798;2024-03-02T10:12:16;1.30;;;0.75;;
66702;SDS011;60933;46.398;-63.798;2024-03-02T10:14:44;1.08;;;0.70;;
66702;SDS011;60933;46.398;-63.798;2024-03-02T10:17:13;2.03;;;0.57;;
66702;SDS011;60933;46.398;-63.798;2024-03-02T10:19:42;1.27;;;0.50;;
66702;SDS011;60933;46.398;-63.798;2024-03-02T10:22:10;2.95;;;0.63;;
66702;SDS011;60933;46.398;-63.798;2024-03-02T10:27:10;1.27;;;0.43;;
66702;SDS011;60933;46.398;-63.798;2024-03-02T10:29:45;1.67;;;0.50;;
66702;SDS011;60933;46.398;-63.798;2024-03-02T10:32:14;2.45;;;0.73;;
66702;SDS011;60933;46.398;-63.798;2024-03-02T10:34:46;1.92;;;0.65;;
66702;SDS011;60933;46.398;-63.798;2024-03-02T10:37:15;1.52;;;0.60;;
66702;SDS011;60933;46.398;-63.798;2024-03-02T10:39:45;1.55;;;0.50;;
66702;SDS011;60933;46.398;-63.798;2024-03-02T10:42:14;2.03;;;0.52;;
66702;SDS011;60933;46.398;-63.798;2024-03-02T10:44:43;1.70;;;0.40;;
66702;SDS011;60933;46.398;-63.798;2024-03-02T10:47:12;1.25;;;0.60;;
66702;SDS011;60933;46.398;-63.798;2024-03-02T10:49:42;1.92;;;0.70;;
66702;SDS011;60933;46.398;-63.798;2024-03-02T10:52:14;1.15;;;0.63;;
66702;SDS011;60933;46.398;-63.798;2024-03-02T10:54:42;1.35;;;0.40;;
66702;SDS011;60933;46.398;-63.798;2024-03-02T10:57:10;0.80;;;0.43;;
66702;SDS011;60933;46.398;-63.798;2024-03-02T10:59:51;2.85;;;0.55;;
66702;SDS011;60933;46.398;-63.798;2024-03-02T11:02:23;0.73;;;0.40;;
66702;SDS011;60933;46.398;-63.798;2024-03-02T11:04:53;0.93;;;0.30;;
66702;SDS011;60933;46.398;-63.798;2024-03-02T11:07:23;1.35;;;0.32;;
66702;SDS011;60933;46.398;-63.798;2024-03-02T11:09:57;1.35;;;0.43;;
66702;SDS011;60933;46.398;-63.798;2024-03-02T11:12:28;0.80;;;0.40;;
66702;SDS011;60933;46.398;-63.798;2024-03-02T11:14:59;0.82;;;0.82;;
66702;SDS011;60933;46.398;-63.798;2024-03-02T11:17:28;0.85;;;0.40;;
66702;SDS011;60933;46.398;-63.798;2024-03-02T11:19:56;1.20;;;0.40;;
66702;SDS011;60933;46.398;-63.798;2024-03-02T11:22:25;0.32;;;0.32;;
66702;SDS011;60933;46.398;-63.798;2024-03-02T11:24:54;0.60;;;0.40;;
66702;SDS011;60933;46.398;-63.798;2024-03-02T11:28:07;2.47;;;0.50;;
66702;SDS011;60933;46.398;-63.798;2024-03-02T11:33:00;1.48;;;0.70;;
66702;SDS011;60933;46.398;-63.798;2024-03-02T11:35:41;1.77;;;0.80;;
66702;SDS011;60933;46.398;-63.798;2024-03-02T11:38:10;3.05;;;0.95;;
66702;SDS011;60933;46.398;-63.798;2024-03-02T11:40:41;1.70;;;1.08;;
66702;SDS011;60933;46.398;-63.798;2024-03-02T11:43:10;1.83;;;0.50;;
66702;SDS011;60933;46.398;-63.798;2024-03-02T11:45:38;2.10;;;0.65;;
66702;SDS011;60933;46.398;-63.798;2024-03-02T11:48:13;1.05;;;0.50;;
66702;SDS011;60933;46.398;-63.798;2024-03-02T11:50:46;1.13;;;0.40;;
66702;SDS011;60933;46.398;-63.798;2024-03-02T11:53:16;1.92;;;0.80;;
66702;SDS011;60933;46.398;-63.798;2024-03-02T11:55:45;1.13;;;0.65;;
66702;SDS011;60933;46.398;-63.798;2024-03-02T11:58:14;2.33;;;0.90;;
66702;SDS011;60933;46.398;-63.798;2024-03-02T12:00:50;2.03;;;0.50;;
66702;SDS011;60933;46.398;-63.798;2024-03-02T12:03:20;1.00;;;0.40;;
66702;SDS011;60933;46.398;-63.798;2024-03-02T12:05:53;0.93;;;0.60;;
66702;SDS011;60933;46.398;-63.798;2024-03-02T12:08:21;1.58;;;0.57;;
66702;SDS011;60933;46.398;-63.798;2024-03-02T12:10:57;1.58;;;0.60;;
66702;SDS011;60933;46.398;-63.798;2024-03-02T12:13:29;3.13;;;0.45;;
66702;SDS011;60933;46.398;-63.798;2024-03-02T12:15:57;1.05;;;0.47;;
66702;SDS011;60933;46.398;-63.798;2024-03-02T12:18:25;1.92;;;0.77;;
66702;SDS011;60933;46.398;-63.798;2024-03-02T12:20:54;0.57;;;0.35;;
66702;SDS011;60933;46.398;-63.798;2024-03-02T12:23:25;1.17;;;0.50;;
66702;SDS011;60933;46.398;-63.798;2024-03-02T12:25:53;1.45;;;0.82;;
66702;SDS011;60933;46.398;-63.798;2024-03-02T12:28:22;1.90;;;0.70;;
66702;SDS011;60933;46.398;-63.798;2024-03-02T12:30:50;1.92;;;0.60;;
66702;SDS011;60933;46.398;-63.798;2024-03-02T12:33:19;2.83;;;0.73;;
66702;SDS011;60933;46.398;-63.798;2024-03-02T12:35:48;1.63;;;0.70;;
66702;SDS011;60933;46.398;-63.798;2024-03-02T12:38:17;1.42;;;0.80;;
66702;SDS011;60933;46.398;-63.798;2024-03-02T12:40:47;4.30;;;0.70;;
66702;SDS011;60933;46.398;-63.798;2024-03-02T12:43:16;4.05;;;1.17;;
66702;SDS011;60933;46.398;-63.798;2024-03-02T12:45:44;2.83;;;0.80;;
66702;SDS011;60933;46.398;-63.798;2024-03-02T12:48:13;2.70;;;0.93;;
66702;SDS011;60933;46.398;-63.798;2024-03-02T12:50:42;1.98;;;0.80;;
66702;SDS011;60933;46.398;-63.798;2024-03-02T12:53:13;1.85;;;0.70;;
66702;SDS011;60933;46.398;-63.798;2024-03-02T12:55:43;1.95;;;0.60;;
66702;SDS011;60933;46.398;-63.798;2024-03-02T12:58:18;2.03;;;0.52;;
66702;SDS011;60933;46.398;-63.798;2024-03-02T13:00:50;1.58;;;0.50;;
66702;SDS011;60933;46.398;-63.798;2024-03-02T13:03:40;1.48;;;0.47;;
66702;SDS011;60933;46.398;-63.798;2024-03-02T13:06:08;1.55;;;0.60;;
66702;SDS011;60933;46.398;-63.798;2024-03-02T13:08:37;2.30;;;0.50;;
66702;SDS011;60933;46.398;-63.798;2024-03-02T13:11:06;2.33;;;0.80;;
66702;SDS011;60933;46.398;-63.798;2024-03-02T13:13:34;1.58;;;0.63;;
66702;SDS011;60933;46.398;-63.798;2024-03-02T13:16:02;2.45;;;0.70;;
66702;SDS011;60933;46.398;-63.798;2024-03-02T13:18:31;4.38;;;0.80;;
66702;SDS011;60933;46.398;-63.798;2024-03-02T13:21:00;4.93;;;0.93;;
66702;SDS011;60933;46.398;-63.798;2024-03-02T13:23:28;2.33;;;0.50;;
66702;SDS011;60933;46.398;-63.798;2024-03-02T13:25:58;1.42;;;0.60;;
66702;SDS011;60933;46.398;-63.798;2024-03-02T13:28:26;2.17;;;0.60;;
66702;SDS011;60933;46.398;-63.798;2024-03-02T13:30:54;1.77;;;0.70;;
66702;SDS011;60933;46.398;-63.798;2024-03-02T13:33:22;2.22;;;0.57;;
66702;SDS011;60933;46.398;-63.798;2024-03-02T13:35:50;1.52;;;0.80;;
66702;SDS011;60933;46.398;-63.798;2024-03-02T13:38:19;2.88;;;0.70;;
66702;SDS011;60933;46.398;-63.798;2024-03-02T13:40:48;2.25;;;0.85;;
66702;SDS011;60933;46.398;-63.798;2024-03-02T13:43:19;2.65;;;0.70;;
66702;SDS011;60933;46.398;-63.798;2024-03-02T13:45:47;1.52;;;0.90;;
66702;SDS011;60933;46.398;-63.798;2024-03-02T13:48:16;1.38;;;0.85;;
66702;SDS011;60933;46.398;-63.798;2024-03-02T13:50:43;2.50;;;0.93;;
66702;SDS011;60933;46.398;-63.798;2024-03-02T13:53:12;1.88;;;0.52;;
66702;SDS011;60933;46.398;-63.798;2024-03-02T13:55:40;2.20;;;0.85;;
66702;SDS011;60933;46.398;-63.798;2024-03-02T13:58:09;3.97;;;0.70;;
66702;SDS011;60933;46.398;-63.798;2024-03-02T14:00:38;1.50;;;0.63;;
66702;SDS011;60933;46.398;-63.798;2024-03-02T14:03:06;1.30;;;0.50;;
66702;SDS011;60933;46.398;-63.798;2024-03-02T14:05:34;1.83;;;0.80;;
66702;SDS011;60933;46.398;-63.798;2024-03-02T14:08:02;1.42;;;0.70;;
66702;SDS011;60933;46.398;-63.798;2024-03-02T14:10:31;2.00;;;0.73;;
66702;SDS011;60933;46.398;-63.798;2024-03-02T14:12:59;4.15;;;0.95;;
66702;SDS011;60933;46.398;-63.798;2024-03-02T14:15:27;1.17;;;0.65;;
66702;SDS011;60933;46.398;-63.798;2024-03-02T14:17:57;3.75;;;0.80;;
66702;SDS011;60933;46.398;-63.798;2024-03-02T14:20:25;3.42;;;1.15;;
66702;SDS011;60933;46.398;-63.798;2024-03-02T14:22:53;1.27;;;0.90;;
66702;SDS011;60933;46.398;-63.798;2024-03-02T14:25:21;2.67;;;0.82;;
66702;SDS011;60933;46.398;-63.798;2024-03-02T14:27:48;1.42;;;0.57;;
66702;SDS011;60933;46.398;-63.798;2024-03-02T14:30:36;3.78;;;1.15;;
66702;SDS011;60933;46.398;-63.798;2024-03-02T14:33:04;4.15;;;1.30;;
66702;SDS011;60933;46.398;-63.798;2024-03-02T14:35:33;2.35;;;0.88;;
66702;SDS011;60933;46.398;-63.798;2024-03-02T14:38:01;2.88;;;0.85;;
66702;SDS011;60933;46.398;-63.798;2024-03-02T14:40:29;1.17;;;0.63;;